Hennepin, Illinois
Current Conditions -  °F | °C
As of 8:55 PM on Friday 21 Nov 2014 (Local Time) from KVYS Reporting Station
Overcast Overcast  
Wind Chill: 24°   Ceiling: 2700
Heat Index: 34°   Visibility: 10mi
Dew Point: 15°   Wind: 17mph
Humidity: 46%   Direction: 170°S
Pressure: 30.22"   Gusts: 24mph
Location:  41.25°N, 89.34°W
Report Text: KVYS 220255Z AUTO 17015G21KT 10SM OVC027 01/M09 A3022 RMK AO2 T00131092
Loading
Personal Weather Stations






























Interactive Weather Map New forecast layout! Learn more

10-Day Weather Forecast

Advertisements
Track Severe Weather on mobile